sensor_id;sensor_type;location;lat;lon;timestamp;P1;durP1;ratioP1;P2;durP2;ratioP2
2570;SDS011;1295;51.130;6.732;2023-06-22T00:01:10;56.90;;;8.93;;
2570;SDS011;1295;51.130;6.732;2023-06-22T00:03:36;56.77;;;10.73;;
2570;SDS011;1295;51.130;6.732;2023-06-22T00:06:17;57.07;;;9.17;;
2570;SDS011;1295;51.130;6.732;2023-06-22T00:08:43;55.97;;;8.53;;
2570;SDS011;1295;51.130;6.732;2023-06-22T00:11:09;55.70;;;10.03;;
2570;SDS011;1295;51.130;6.732;2023-06-22T00:13:35;55.40;;;9.13;;
2570;SDS011;1295;51.130;6.732;2023-06-22T00:16:00;58.13;;;9.40;;
2570;SDS011;1295;51.130;6.732;2023-06-22T00:18:26;55.20;;;8.77;;
2570;SDS011;1295;51.130;6.732;2023-06-22T00:20:52;59.83;;;11.20;;
2570;SDS011;1295;51.130;6.732;2023-06-22T00:23:17;55.83;;;11.20;;
2570;SDS011;1295;51.130;6.732;2023-06-22T00:25:43;56.50;;;9.63;;
2570;SDS011;1295;51.130;6.732;2023-06-22T00:28:09;56.83;;;10.43;;
2570;SDS011;1295;51.130;6.732;2023-06-22T00:30:35;58.37;;;11.23;;
2570;SDS011;1295;51.130;6.732;2023-06-22T00:33:01;56.50;;;10.03;;
2570;SDS011;1295;51.130;6.732;2023-06-22T00:35:27;56.37;;;11.80;;
2570;SDS011;1295;51.130;6.732;2023-06-22T00:37:52;56.10;;;11.80;;
2570;SDS011;1295;51.130;6.732;2023-06-22T00:40:18;55.97;;;9.87;;
2570;SDS011;1295;51.130;6.732;2023-06-22T00:42:43;57.27;;;11.40;;
2570;SDS011;1295;51.130;6.732;2023-06-22T00:45:09;56.57;;;11.40;;
2570;SDS011;1295;51.130;6.732;2023-06-22T00:47:35;57.30;;;11.20;;
2570;SDS011;1295;51.130;6.732;2023-06-22T00:50:01;57.50;;;10.90;;
2570;SDS011;1295;51.130;6.732;2023-06-22T00:52:26;57.00;;;11.80;;
2570;SDS011;1295;51.130;6.732;2023-06-22T00:54:52;58.63;;;11.97;;
2570;SDS011;1295;51.130;6.732;2023-06-22T00:57:18;59.83;;;11.73;;
2570;SDS011;1295;51.130;6.732;2023-06-22T00:59:44;57.90;;;11.33;;
2570;SDS011;1295;51.130;6.732;2023-06-22T01:02:10;58.37;;;11.30;;
2570;SDS011;1295;51.130;6.732;2023-06-22T01:04:36;59.13;;;12.13;;
2570;SDS011;1295;51.130;6.732;2023-06-22T01:09:35;59.10;;;11.87;;
2570;SDS011;1295;51.130;6.732;2023-06-22T01:12:00;57.20;;;12.77;;
2570;SDS011;1295;51.130;6.732;2023-06-22T01:14:28;62.07;;;13.60;;
2570;SDS011;1295;51.130;6.732;2023-06-22T01:16:54;58.20;;;12.23;;
2570;SDS011;1295;51.130;6.732;2023-06-22T01:19:28;56.27;;;12.07;;
2570;SDS011;1295;51.130;6.732;2023-06-22T01:22:06;58.77;;;13.57;;
2570;SDS011;1295;51.130;6.732;2023-06-22T01:27:26;58.70;;;13.27;;
2570;SDS011;1295;51.130;6.732;2023-06-22T01:29:51;59.93;;;13.37;;
2570;SDS011;1295;51.130;6.732;2023-06-22T01:32:15;57.73;;;12.23;;
2570;SDS011;1295;51.130;6.732;2023-06-22T01:34:41;58.87;;;13.20;;
2570;SDS011;1295;51.130;6.732;2023-06-22T01:37:07;63.17;;;14.33;;
2570;SDS011;1295;51.130;6.732;2023-06-22T01:39:32;63.53;;;12.40;;
2570;SDS011;1295;51.130;6.732;2023-06-22T01:41:58;62.03;;;13.13;;
2570;SDS011;1295;51.130;6.732;2023-06-22T01:44:24;58.60;;;11.70;;
2570;SDS011;1295;51.130;6.732;2023-06-22T01:46:49;57.80;;;11.70;;
2570;SDS011;1295;51.130;6.732;2023-06-22T01:49:16;58.70;;;11.97;;
2570;SDS011;1295;51.130;6.732;2023-06-22T01:51:41;58.87;;;12.60;;
2570;SDS011;1295;51.130;6.732;2023-06-22T01:54:07;57.60;;;10.60;;
2570;SDS011;1295;51.130;6.732;2023-06-22T01:56:33;58.00;;;12.10;;
2570;SDS011;1295;51.130;6.732;2023-06-22T01:59:03;57.97;;;13.70;;
2570;SDS011;1295;51.130;6.732;2023-06-22T02:01:27;57.30;;;11.90;;
2570;SDS011;1295;51.130;6.732;2023-06-22T02:03:53;58.63;;;11.73;;
2570;SDS011;1295;51.130;6.732;2023-06-22T02:06:17;57.87;;;12.00;;
2570;SDS011;1295;51.130;6.732;2023-06-22T02:08:45;58.50;;;12.23;;
2570;SDS011;1295;51.130;6.732;2023-06-22T02:11:08;61.63;;;13.50;;
2570;SDS011;1295;51.130;6.732;2023-06-22T02:13:33;57.57;;;12.10;;
2570;SDS011;1295;51.130;6.732;2023-06-22T02:15:59;61.43;;;12.30;;
2570;SDS011;1295;51.130;6.732;2023-06-22T02:18:25;60.80;;;14.63;;
2570;SDS011;1295;51.130;6.732;2023-06-22T02:20:51;61.50;;;14.30;;
2570;SDS011;1295;51.130;6.732;2023-06-22T02:23:16;60.10;;;16.17;;
2570;SDS011;1295;51.130;6.732;2023-06-22T02:25:42;61.17;;;15.00;;
2570;SDS011;1295;51.130;6.732;2023-06-22T02:28:08;60.23;;;14.40;;
2570;SDS011;1295;51.130;6.732;2023-06-22T02:30:33;57.70;;;11.50;;
2570;SDS011;1295;51.130;6.732;2023-06-22T02:32:59;58.57;;;12.30;;
2570;SDS011;1295;51.130;6.732;2023-06-22T02:35:25;59.10;;;13.10;;
2570;SDS011;1295;51.130;6.732;2023-06-22T02:37:50;58.97;;;12.53;;
2570;SDS011;1295;51.130;6.732;2023-06-22T02:40:16;59.60;;;14.33;;
2570;SDS011;1295;51.130;6.732;2023-06-22T02:42:42;58.10;;;11.53;;
2570;SDS011;1295;51.130;6.732;2023-06-22T02:45:07;60.63;;;15.70;;
2570;SDS011;1295;51.130;6.732;2023-06-22T02:47:33;61.50;;;16.53;;
2570;SDS011;1295;51.130;6.732;2023-06-22T02:49:59;59.43;;;13.60;;
2570;SDS011;1295;51.130;6.732;2023-06-22T02:52:26;62.63;;;14.23;;
2570;SDS011;1295;51.130;6.732;2023-06-22T02:54:51;61.40;;;15.00;;
2570;SDS011;1295;51.130;6.732;2023-06-22T02:57:17;58.90;;;13.30;;
2570;SDS011;1295;51.130;6.732;2023-06-22T02:59:42;59.10;;;13.27;;
2570;SDS011;1295;51.130;6.732;2023-06-22T03:02:08;60.90;;;15.23;;
2570;SDS011;1295;51.130;6.732;2023-06-22T03:04:35;59.77;;;13.90;;
2570;SDS011;1295;51.130;6.732;2023-06-22T03:07:00;65.83;;;17.53;;
2570;SDS011;1295;51.130;6.732;2023-06-22T03:09:27;63.03;;;18.07;;
2570;SDS011;1295;51.130;6.732;2023-06-22T03:11:53;64.97;;;20.73;;
2570;SDS011;1295;51.130;6.732;2023-06-22T03:14:18;62.93;;;24.37;;
2570;SDS011;1295;51.130;6.732;2023-06-22T03:16:44;64.23;;;20.03;;
2570;SDS011;1295;51.130;6.732;2023-06-22T03:19:10;67.53;;;20.33;;
2570;SDS011;1295;51.130;6.732;2023-06-22T03:21:37;64.47;;;22.77;;
2570;SDS011;1295;51.130;6.732;2023-06-22T03:24:01;62.30;;;19.43;;
2570;SDS011;1295;51.130;6.732;2023-06-22T03:26:27;65.63;;;23.83;;
2570;SDS011;1295;51.130;6.732;2023-06-22T03:28:53;67.53;;;23.03;;
2570;SDS011;1295;51.130;6.732;2023-06-22T03:31:18;62.87;;;20.17;;
2570;SDS011;1295;51.130;6.732;2023-06-22T03:33:44;63.00;;;23.97;;
2570;SDS011;1295;51.130;6.732;2023-06-22T03:36:10;61.10;;;20.50;;
2570;SDS011;1295;51.130;6.732;2023-06-22T03:38:35;68.33;;;24.87;;
2570;SDS011;1295;51.130;6.732;2023-06-22T03:41:01;65.73;;;20.53;;
2570;SDS011;1295;51.130;6.732;2023-06-22T03:43:27;66.20;;;22.40;;
2570;SDS011;1295;51.130;6.732;2023-06-22T03:45:52;67.80;;;24.07;;
2570;SDS011;1295;51.130;6.732;2023-06-22T03:48:18;67.63;;;21.47;;
2570;SDS011;1295;51.130;6.732;2023-06-22T03:50:44;62.30;;;20.73;;
2570;SDS011;1295;51.130;6.732;2023-06-22T03:53:09;67.80;;;24.77;;
2570;SDS011;1295;51.130;6.732;2023-06-22T03:55:35;65.93;;;24.53;;
2570;SDS011;1295;51.130;6.732;2023-06-22T03:58:00;66.30;;;25.27;;
2570;SDS011;1295;51.130;6.732;2023-06-22T04:00:26;67.53;;;21.43;;
2570;SDS011;1295;51.130;6.732;2023-06-22T04:02:53;69.70;;;33.63;;
2570;SDS011;1295;51.130;6.732;2023-06-22T04:05:18;69.93;;;22.97;;
2570;SDS011;1295;51.130;6.732;2023-06-22T04:07:44;74.33;;;24.67;;
2570;SDS011;1295;51.130;6.732;2023-06-22T04:10:09;67.33;;;19.43;;
2570;SDS011;1295;51.130;6.732;2023-06-22T04:12:35;66.03;;;23.60;;
2570;SDS011;1295;51.130;6.732;2023-06-22T04:15:01;68.33;;;28.80;;
2570;SDS011;1295;51.130;6.732;2023-06-22T04:17:26;65.60;;;21.47;;
2570;SDS011;1295;51.130;6.732;2023-06-22T04:19:52;68.90;;;25.27;;
2570;SDS011;1295;51.130;6.732;2023-06-22T04:22:18;64.43;;;22.43;;
2570;SDS011;1295;51.130;6.732;2023-06-22T04:24:44;64.67;;;28.83;;
2570;SDS011;1295;51.130;6.732;2023-06-22T04:27:09;64.43;;;23.67;;
2570;SDS011;1295;51.130;6.732;2023-06-22T04:29:35;66.83;;;30.23;;
2570;SDS011;1295;51.130;6.732;2023-06-22T04:32:00;66.80;;;20.87;;
2570;SDS011;1295;51.130;6.732;2023-06-22T04:34:26;75.30;;;23.60;;
2570;SDS011;1295;51.130;6.732;2023-06-22T04:36:52;66.00;;;20.43;;
2570;SDS011;1295;51.130;6.732;2023-06-22T04:39:17;64.10;;;21.77;;
2570;SDS011;1295;51.130;6.732;2023-06-22T04:41:43;69.80;;;21.83;;
2570;SDS011;1295;51.130;6.732;2023-06-22T04:44:10;64.57;;;18.40;;
2570;SDS011;1295;51.130;6.732;2023-06-22T04:46:36;65.10;;;20.50;;
2570;SDS011;1295;51.130;6.732;2023-06-22T04:49:01;66.20;;;21.03;;
2570;SDS011;1295;51.130;6.732;2023-06-22T04:51:27;65.80;;;18.83;;
2570;SDS011;1295;51.130;6.732;2023-06-22T04:53:52;65.00;;;18.23;;
2570;SDS011;1295;51.130;6.732;2023-06-22T04:56:18;62.37;;;16.73;;
2570;SDS011;1295;51.130;6.732;2023-06-22T04:58:44;67.83;;;16.40;;
2570;SDS011;1295;51.130;6.732;2023-06-22T05:01:09;64.00;;;16.83;;
2570;SDS011;1295;51.130;6.732;2023-06-22T05:03:35;60.27;;;15.00;;
2570;SDS011;1295;51.130;6.732;2023-06-22T05:06:01;63.40;;;16.63;;
2570;SDS011;1295;51.130;6.732;2023-06-22T05:08:26;64.97;;;25.87;;
2570;SDS011;1295;51.130;6.732;2023-06-22T05:10:52;67.93;;;18.47;;
2570;SDS011;1295;51.130;6.732;2023-06-22T05:13:18;67.00;;;17.53;;
2570;SDS011;1295;51.130;6.732;2023-06-22T05:15:44;61.83;;;14.93;;
2570;SDS011;1295;51.130;6.732;2023-06-22T05:18:10;67.00;;;16.20;;
2570;SDS011;1295;51.130;6.732;2023-06-22T05:20:36;64.57;;;16.13;;
2570;SDS011;1295;51.130;6.732;2023-06-22T05:23:02;64.97;;;16.17;;
2570;SDS011;1295;51.130;6.732;2023-06-22T05:25:28;65.17;;;16.80;;
2570;SDS011;1295;51.130;6.732;2023-06-22T05:27:54;61.63;;;16.60;;
2570;SDS011;1295;51.130;6.732;2023-06-22T05:30:20;63.67;;;15.50;;
2570;SDS011;1295;51.130;6.732;2023-06-22T05:32:46;64.13;;;15.30;;
2570;SDS011;1295;51.130;6.732;2023-06-22T05:35:11;69.43;;;17.03;;
2570;SDS011;1295;51.130;6.732;2023-06-22T05:37:37;63.20;;;17.40;;
2570;SDS011;1295;51.130;6.732;2023-06-22T05:40:03;60.40;;;14.63;;
2570;SDS011;1295;51.130;6.732;2023-06-22T05:42:29;63.53;;;15.33;;
2570;SDS011;1295;51.130;6.732;2023-06-22T05:44:55;60.57;;;14.90;;
2570;SDS011;1295;51.130;6.732;2023-06-22T05:47:21;59.87;;;13.73;;
2570;SDS011;1295;51.130;6.732;2023-06-22T05:49:46;65.40;;;14.80;;
2570;SDS011;1295;51.130;6.732;2023-06-22T05:52:12;62.87;;;15.27;;
2570;SDS011;1295;51.130;6.732;2023-06-22T05:54:38;69.50;;;15.50;;
2570;SDS011;1295;51.130;6.732;2023-06-22T05:57:04;69.57;;;32.17;;
2570;SDS011;1295;51.130;6.732;2023-06-22T05:59:30;60.93;;;14.10;;
2570;SDS011;1295;51.130;6.732;2023-06-22T06:01:55;62.60;;;15.40;;
2570;SDS011;1295;51.130;6.732;2023-06-22T06:04:21;64.00;;;13.50;;
2570;SDS011;1295;51.130;6.732;2023-06-22T06:06:47;61.60;;;14.80;;
2570;SDS011;1295;51.130;6.732;2023-06-22T06:09:13;63.50;;;14.90;;
2570;SDS011;1295;51.130;6.732;2023-06-22T06:11:38;65.97;;;15.17;;
2570;SDS011;1295;51.130;6.732;2023-06-22T06:14:04;70.63;;;16.73;;
2570;SDS011;1295;51.130;6.732;2023-06-22T06:16:29;63.30;;;13.80;;
2570;SDS011;1295;51.130;6.732;2023-06-22T06:18:55;64.33;;;15.90;;
2570;SDS011;1295;51.130;6.732;2023-06-22T06:21:21;63.60;;;12.97;;
2570;SDS011;1295;51.130;6.732;2023-06-22T06:23:46;62.77;;;15.67;;
2570;SDS011;1295;51.130;6.732;2023-06-22T06:26:12;65.83;;;13.93;;
2570;SDS011;1295;51.130;6.732;2023-06-22T06:28:38;63.60;;;16.43;;
2570;SDS011;1295;51.130;6.732;2023-06-22T06:31:03;70.17;;;19.77;;
2570;SDS011;1295;51.130;6.732;2023-06-22T06:33:29;70.13;;;17.77;;
2570;SDS011;1295;51.130;6.732;2023-06-22T06:35:55;74.50;;;18.50;;
2570;SDS011;1295;51.130;6.732;2023-06-22T06:38:21;65.27;;;17.00;;
2570;SDS011;1295;51.130;6.732;2023-06-22T06:40:46;66.03;;;14.87;;
2570;SDS011;1295;51.130;6.732;2023-06-22T06:43:12;63.27;;;16.33;;
2570;SDS011;1295;51.130;6.732;2023-06-22T06:45:38;94.70;;;20.50;;
2570;SDS011;1295;51.130;6.732;2023-06-22T06:48:04;75.47;;;17.83;;
2570;SDS011;1295;51.130;6.732;2023-06-22T06:50:29;69.47;;;16.80;;
2570;SDS011;1295;51.130;6.732;2023-06-22T06:52:56;71.40;;;15.90;;
2570;SDS011;1295;51.130;6.732;2023-06-22T06:55:22;72.17;;;19.30;;
2570;SDS011;1295;51.130;6.732;2023-06-22T06:57:47;76.77;;;18.93;;
2570;SDS011;1295;51.130;6.732;2023-06-22T07:00:13;70.10;;;19.07;;
2570;SDS011;1295;51.130;6.732;2023-06-22T07:02:40;66.50;;;16.10;;
2570;SDS011;1295;51.130;6.732;2023-06-22T07:05:05;73.10;;;21.80;;
2570;SDS011;1295;51.130;6.732;2023-06-22T07:07:32;76.50;;;17.83;;
2570;SDS011;1295;51.130;6.732;2023-06-22T07:09:58;65.97;;;20.13;;
2570;SDS011;1295;51.130;6.732;2023-06-22T07:12:23;70.00;;;20.00;;
2570;SDS011;1295;51.130;6.732;2023-06-22T07:14:49;74.53;;;19.70;;
2570;SDS011;1295;51.130;6.732;2023-06-22T07:17:14;68.97;;;19.17;;
2570;SDS011;1295;51.130;6.732;2023-06-22T07:19:40;66.87;;;21.30;;
2570;SDS011;1295;51.130;6.732;2023-06-22T07:22:06;71.20;;;15.80;;
2570;SDS011;1295;51.130;6.732;2023-06-22T07:24:31;66.33;;;17.80;;
2570;SDS011;1295;51.130;6.732;2023-06-22T07:26:58;67.13;;;17.20;;
2570;SDS011;1295;51.130;6.732;2023-06-22T07:29:23;72.40;;;19.90;;
2570;SDS011;1295;51.130;6.732;2023-06-22T07:31:49;80.77;;;21.37;;
2570;SDS011;1295;51.130;6.732;2023-06-22T07:34:15;67.53;;;26.23;;
2570;SDS011;1295;51.130;6.732;2023-06-22T07:36:40;73.07;;;20.80;;
2570;SDS011;1295;51.130;6.732;2023-06-22T07:39:06;69.70;;;23.87;;
2570;SDS011;1295;51.130;6.732;2023-06-22T07:41:32;82.80;;;41.23;;
2570;SDS011;1295;51.130;6.732;2023-06-22T07:43:57;72.47;;;29.73;;
2570;SDS011;1295;51.130;6.732;2023-06-22T07:46:23;77.67;;;36.27;;
2570;SDS011;1295;51.130;6.732;2023-06-22T07:48:49;76.23;;;26.20;;
2570;SDS011;1295;51.130;6.732;2023-06-22T07:51:14;87.63;;;54.67;;
2570;SDS011;1295;51.130;6.732;2023-06-22T07:53:41;85.47;;;40.97;;
2570;SDS011;1295;51.130;6.732;2023-06-22T07:56:06;88.53;;;36.13;;
2570;SDS011;1295;51.130;6.732;2023-06-22T07:58:33;76.43;;;29.13;;
2570;SDS011;1295;51.130;6.732;2023-06-22T08:00:59;71.60;;;25.30;;
2570;SDS011;1295;51.130;6.732;2023-06-22T08:03:25;77.80;;;31.53;;
2570;SDS011;1295;51.130;6.732;2023-06-22T08:05:51;93.50;;;24.97;;
2570;SDS011;1295;51.130;6.732;2023-06-22T08:08:16;66.90;;;16.40;;
2570;SDS011;1295;51.130;6.732;2023-06-22T08:10:42;65.93;;;14.63;;
2570;SDS011;1295;51.130;6.732;2023-06-22T08:13:08;74.93;;;15.27;;
2570;SDS011;1295;51.130;6.732;2023-06-22T08:15:34;76.83;;;14.53;;
2570;SDS011;1295;51.130;6.732;2023-06-22T08:17:59;73.47;;;18.00;;
2570;SDS011;1295;51.130;6.732;2023-06-22T08:20:25;75.80;;;28.17;;
2570;SDS011;1295;51.130;6.732;2023-06-22T08:22:51;74.93;;;33.00;;
2570;SDS011;1295;51.130;6.732;2023-06-22T08:25:16;71.57;;;25.47;;
2570;SDS011;1295;51.130;6.732;2023-06-22T08:27:44;79.50;;;36.13;;
2570;SDS011;1295;51.130;6.732;2023-06-22T08:30:09;67.23;;;16.80;;
2570;SDS011;1295;51.130;6.732;2023-06-22T08:32:34;64.63;;;21.63;;
2570;SDS011;1295;51.130;6.732;2023-06-22T08:35:00;71.87;;;19.03;;
2570;SDS011;1295;51.130;6.732;2023-06-22T08:37:25;64.87;;;14.30;;
2570;SDS011;1295;51.130;6.732;2023-06-22T08:39:51;67.20;;;22.27;;
2570;SDS011;1295;51.130;6.732;2023-06-22T08:42:17;65.07;;;21.73;;
2570;SDS011;1295;51.130;6.732;2023-06-22T08:44:42;63.30;;;15.60;;
2570;SDS011;1295;51.130;6.732;2023-06-22T08:47:08;60.47;;;18.53;;
2570;SDS011;1295;51.130;6.732;2023-06-22T08:49:33;64.67;;;16.33;;
2570;SDS011;1295;51.130;6.732;2023-06-22T08:51:59;62.33;;;21.07;;
2570;SDS011;1295;51.130;6.732;2023-06-22T08:54:25;63.37;;;24.03;;
2570;SDS011;1295;51.130;6.732;2023-06-22T08:56:50;71.67;;;34.10;;
2570;SDS011;1295;51.130;6.732;2023-06-22T08:59:16;76.50;;;61.43;;
2570;SDS011;1295;51.130;6.732;2023-06-22T09:01:42;60.37;;;15.23;;
2570;SDS011;1295;51.130;6.732;2023-06-22T09:04:07;66.43;;;27.37;;
2570;SDS011;1295;51.130;6.732;2023-06-22T09:06:33;72.17;;;34.73;;
2570;SDS011;1295;51.130;6.732;2023-06-22T09:08:59;64.57;;;25.07;;
2570;SDS011;1295;51.130;6.732;2023-06-22T09:11:25;62.60;;;23.53;;
2570;SDS011;1295;51.130;6.732;2023-06-22T09:13:51;64.23;;;21.07;;
2570;SDS011;1295;51.130;6.732;2023-06-22T09:16:17;62.87;;;20.37;;
2570;SDS011;1295;51.130;6.732;2023-06-22T09:18:42;57.33;;;16.50;;
2570;SDS011;1295;51.130;6.732;2023-06-22T09:21:08;61.10;;;20.23;;
2570;SDS011;1295;51.130;6.732;2023-06-22T09:23:34;59.70;;;14.50;;
2570;SDS011;1295;51.130;6.732;2023-06-22T09:26:00;70.00;;;26.80;;
2570;SDS011;1295;51.130;6.732;2023-06-22T09:28:25;62.70;;;20.37;;
2570;SDS011;1295;51.130;6.732;2023-06-22T09:30:52;64.00;;;17.13;;
2570;SDS011;1295;51.130;6.732;2023-06-22T09:33:17;59.27;;;17.93;;
2570;SDS011;1295;51.130;6.732;2023-06-22T09:35:44;72.10;;;31.73;;
2570;SDS011;1295;51.130;6.732;2023-06-22T09:38:09;64.83;;;20.07;;
2570;SDS011;1295;51.130;6.732;2023-06-22T09:40:35;59.40;;;21.53;;
2570;SDS011;1295;51.130;6.732;2023-06-22T09:43:01;58.30;;;16.43;;
2570;SDS011;1295;51.130;6.732;2023-06-22T09:45:26;56.50;;;13.50;;
2570;SDS011;1295;51.130;6.732;2023-06-22T09:47:52;62.80;;;21.90;;
2570;SDS011;1295;51.130;6.732;2023-06-22T09:50:18;64.30;;;27.87;;
2570;SDS011;1295;51.130;6.732;2023-06-22T09:52:44;59.60;;;17.63;;
2570;SDS011;1295;51.130;6.732;2023-06-22T09:55:10;69.47;;;20.93;;
2570;SDS011;1295;51.130;6.732;2023-06-22T09:57:35;71.63;;;38.23;;
2570;SDS011;1295;51.130;6.732;2023-06-22T10:00:01;70.63;;;34.50;;
2570;SDS011;1295;51.130;6.732;2023-06-22T10:02:27;63.60;;;33.90;;
2570;SDS011;1295;51.130;6.732;2023-06-22T10:04:52;68.77;;;35.93;;
2570;SDS011;1295;51.130;6.732;2023-06-22T10:07:18;67.77;;;39.10;;
2570;SDS011;1295;51.130;6.732;2023-06-22T10:09:44;77.87;;;45.30;;
2570;SDS011;1295;51.130;6.732;2023-06-22T10:12:09;64.37;;;31.63;;
2570;SDS011;1295;51.130;6.732;2023-06-22T10:14:35;81.27;;;43.53;;
2570;SDS011;1295;51.130;6.732;2023-06-22T10:17:02;67.07;;;32.67;;
2570;SDS011;1295;51.130;6.732;2023-06-22T10:19:26;75.60;;;44.43;;
2570;SDS011;1295;51.130;6.732;2023-06-22T10:21:52;71.00;;;28.40;;
2570;SDS011;1295;51.130;6.732;2023-06-22T10:24:18;60.60;;;25.33;;
2570;SDS011;1295;51.130;6.732;2023-06-22T10:26:44;66.03;;;23.13;;
2570;SDS011;1295;51.130;6.732;2023-06-22T10:29:10;62.17;;;23.37;;
2570;SDS011;1295;51.130;6.732;2023-06-22T10:31:35;60.27;;;14.27;;
2570;SDS011;1295;51.130;6.732;2023-06-22T10:34:01;59.37;;;15.17;;
2570;SDS011;1295;51.130;6.732;2023-06-22T10:36:26;58.13;;;14.80;;
2570;SDS011;1295;51.130;6.732;2023-06-22T10:38:52;61.97;;;17.87;;
2570;SDS011;1295;51.130;6.732;2023-06-22T10:41:18;63.30;;;19.60;;
2570;SDS011;1295;51.130;6.732;2023-06-22T10:43:43;59.70;;;17.83;;
2570;SDS011;1295;51.130;6.732;2023-06-22T10:46:09;63.50;;;20.30;;
2570;SDS011;1295;51.130;6.732;2023-06-22T10:48:35;61.90;;;19.67;;
2570;SDS011;1295;51.130;6.732;2023-06-22T10:51:00;56.43;;;17.23;;
2570;SDS011;1295;51.130;6.732;2023-06-22T10:53:26;60.73;;;16.33;;
2570;SDS011;1295;51.130;6.732;2023-06-22T10:55:52;65.40;;;23.83;;
2570;SDS011;1295;51.130;6.732;2023-06-22T10:58:18;57.40;;;20.60;;
2570;SDS011;1295;51.130;6.732;2023-06-22T11:00:43;59.30;;;17.70;;
2570;SDS011;1295;51.130;6.732;2023-06-22T11:03:09;58.20;;;16.87;;
2570;SDS011;1295;51.130;6.732;2023-06-22T11:05:34;61.20;;;20.87;;
2570;SDS011;1295;51.130;6.732;2023-06-22T11:08:00;64.97;;;20.40;;
2570;SDS011;1295;51.130;6.732;2023-06-22T11:10:26;67.30;;;19.20;;
2570;SDS011;1295;51.130;6.732;2023-06-22T11:12:52;66.83;;;29.13;;
2570;SDS011;1295;51.130;6.732;2023-06-22T11:15:18;65.60;;;21.60;;
2570;SDS011;1295;51.130;6.732;2023-06-22T11:17:44;63.33;;;18.43;;
2570;SDS011;1295;51.130;6.732;2023-06-22T11:20:10;59.47;;;17.60;;
2570;SDS011;1295;51.130;6.732;2023-06-22T11:22:37;76.03;;;46.97;;
2570;SDS011;1295;51.130;6.732;2023-06-22T11:25:04;75.60;;;39.73;;
2570;SDS011;1295;51.130;6.732;2023-06-22T11:27:30;68.10;;;32.77;;
2570;SDS011;1295;51.130;6.732;2023-06-22T11:29:55;67.20;;;22.80;;
2570;SDS011;1295;51.130;6.732;2023-06-22T11:32:21;70.57;;;37.37;;
2570;SDS011;1295;51.130;6.732;2023-06-22T11:34:47;61.07;;;18.80;;
2570;SDS011;1295;51.130;6.732;2023-06-22T11:37:12;61.50;;;25.60;;
2570;SDS011;1295;51.130;6.732;2023-06-22T11:39:38;65.17;;;19.73;;
2570;SDS011;1295;51.130;6.732;2023-06-22T11:42:04;59.90;;;20.80;;
2570;SDS011;1295;51.130;6.732;2023-06-22T11:44:30;60.73;;;20.33;;
2570;SDS011;1295;51.130;6.732;2023-06-22T11:46:55;65.23;;;25.40;;
2570;SDS011;1295;51.130;6.732;2023-06-22T11:49:21;63.93;;;24.63;;
2570;SDS011;1295;51.130;6.732;2023-06-22T11:51:46;67.07;;;26.63;;
2570;SDS011;1295;51.130;6.732;2023-06-22T11:54:12;75.43;;;43.10;;
2570;SDS011;1295;51.130;6.732;2023-06-22T11:56:38;62.53;;;26.20;;
2570;SDS011;1295;51.130;6.732;2023-06-22T11:59:04;66.17;;;23.53;;
2570;SDS011;1295;51.130;6.732;2023-06-22T12:01:30;69.80;;;28.10;;
2570;SDS011;1295;51.130;6.732;2023-06-22T12:03:56;62.40;;;26.63;;
2570;SDS011;1295;51.130;6.732;2023-06-22T12:06:21;64.73;;;27.63;;
2570;SDS011;1295;51.130;6.732;2023-06-22T12:08:47;66.13;;;22.03;;
2570;SDS011;1295;51.130;6.732;2023-06-22T12:11:13;61.80;;;23.67;;
2570;SDS011;1295;51.130;6.732;2023-06-22T12:13:39;64.27;;;23.87;;
2570;SDS011;1295;51.130;6.732;2023-06-22T12:16:05;74.97;;;31.53;;
2570;SDS011;1295;51.130;6.732;2023-06-22T12:18:30;63.70;;;20.10;;
2570;SDS011;1295;51.130;6.732;2023-06-22T12:20:56;60.07;;;16.77;;
2570;SDS011;1295;51.130;6.732;2023-06-22T12:23:22;66.40;;;20.23;;
2570;SDS011;1295;51.130;6.732;2023-06-22T12:25:48;63.20;;;21.77;;
2570;SDS011;1295;51.130;6.732;2023-06-22T12:28:14;69.17;;;18.87;;
2570;SDS011;1295;51.130;6.732;2023-06-22T12:30:39;69.37;;;24.43;;
2570;SDS011;1295;51.130;6.732;2023-06-22T12:33:05;65.90;;;24.03;;
2570;SDS011;1295;51.130;6.732;2023-06-22T12:35:31;56.80;;;17.83;;
2570;SDS011;1295;51.130;6.732;2023-06-22T12:37:56;60.47;;;16.90;;
2570;SDS011;1295;51.130;6.732;2023-06-22T12:40:22;59.70;;;18.43;;
2570;SDS011;1295;51.130;6.732;2023-06-22T12:42:48;64.83;;;19.43;;
2570;SDS011;1295;51.130;6.732;2023-06-22T12:45:15;62.57;;;17.30;;
2570;SDS011;1295;51.130;6.732;2023-06-22T12:47:40;63.70;;;31.77;;
2570;SDS011;1295;51.130;6.732;2023-06-22T12:50:06;59.53;;;17.60;;
2570;SDS011;1295;51.130;6.732;2023-06-22T12:52:32;70.60;;;26.50;;
2570;SDS011;1295;51.130;6.732;2023-06-22T12:54:58;62.87;;;17.57;;
2570;SDS011;1295;51.130;6.732;2023-06-22T12:57:24;60.70;;;15.33;;
2570;SDS011;1295;51.130;6.732;2023-06-22T12:59:49;61.10;;;24.40;;
2570;SDS011;1295;51.130;6.732;2023-06-22T13:02:15;67.03;;;23.93;;
2570;SDS011;1295;51.130;6.732;2023-06-22T13:04:41;64.10;;;26.40;;
2570;SDS011;1295;51.130;6.732;2023-06-22T13:07:06;59.27;;;16.00;;
2570;SDS011;1295;51.130;6.732;2023-06-22T13:09:32;59.23;;;23.00;;
2570;SDS011;1295;51.130;6.732;2023-06-22T13:11:59;60.27;;;21.83;;
2570;SDS011;1295;51.130;6.732;2023-06-22T13:14:23;60.47;;;18.90;;
2570;SDS011;1295;51.130;6.732;2023-06-22T13:16:49;60.47;;;20.77;;
2570;SDS011;1295;51.130;6.732;2023-06-22T13:19:15;62.00;;;24.20;;
2570;SDS011;1295;51.130;6.732;2023-06-22T13:21:40;61.13;;;21.73;;
2570;SDS011;1295;51.130;6.732;2023-06-22T13:24:06;60.03;;;19.60;;
2570;SDS011;1295;51.130;6.732;2023-06-22T13:26:32;63.63;;;21.20;;
2570;SDS011;1295;51.130;6.732;2023-06-22T13:28:58;59.63;;;19.67;;
2570;SDS011;1295;51.130;6.732;2023-06-22T13:31:23;64.13;;;22.63;;
2570;SDS011;1295;51.130;6.732;2023-06-22T13:33:49;65.93;;;26.93;;
2570;SDS011;1295;51.130;6.732;2023-06-22T13:36:14;63.43;;;27.47;;
2570;SDS011;1295;51.130;6.732;2023-06-22T13:38:40;60.93;;;22.27;;
2570;SDS011;1295;51.130;6.732;2023-06-22T13:41:06;63.47;;;31.10;;
2570;SDS011;1295;51.130;6.732;2023-06-22T13:43:32;68.90;;;28.07;;
2570;SDS011;1295;51.130;6.732;2023-06-22T13:45:58;66.53;;;25.73;;
2570;SDS011;1295;51.130;6.732;2023-06-22T13:48:23;67.20;;;30.10;;
2570;SDS011;1295;51.130;6.732;2023-06-22T13:50:49;64.13;;;22.50;;
2570;SDS011;1295;51.130;6.732;2023-06-22T13:53:15;63.63;;;22.17;;
2570;SDS011;1295;51.130;6.732;2023-06-22T13:55:40;68.50;;;24.43;;
2570;SDS011;1295;51.130;6.732;2023-06-22T13:58:06;65.23;;;27.10;;
2570;SDS011;1295;51.130;6.732;2023-06-22T14:00:32;59.00;;;20.57;;
2570;SDS011;1295;51.130;6.732;2023-06-22T14:02:57;61.40;;;20.83;;
2570;SDS011;1295;51.130;6.732;2023-06-22T14:05:23;60.60;;;24.00;;
2570;SDS011;1295;51.130;6.732;2023-06-22T14:07:49;68.83;;;24.40;;
2570;SDS011;1295;51.130;6.732;2023-06-22T14:10:14;67.43;;;28.10;;
2570;SDS011;1295;51.130;6.732;2023-06-22T14:12:40;66.43;;;27.33;;
2570;SDS011;1295;51.130;6.732;2023-06-22T14:15:06;67.67;;;23.90;;
2570;SDS011;1295;51.130;6.732;2023-06-22T14:17:32;62.10;;;20.33;;
2570;SDS011;1295;51.130;6.732;2023-06-22T14:19:58;62.13;;;23.70;;
2570;SDS011;1295;51.130;6.732;2023-06-22T14:22:23;64.97;;;31.30;;
2570;SDS011;1295;51.130;6.732;2023-06-22T14:24:49;70.70;;;23.40;;
2570;SDS011;1295;51.130;6.732;2023-06-22T14:27:15;65.10;;;24.30;;
2570;SDS011;1295;51.130;6.732;2023-06-22T14:29:41;65.57;;;28.57;;
2570;SDS011;1295;51.130;6.732;2023-06-22T14:32:07;66.63;;;23.70;;
2570;SDS011;1295;51.130;6.732;2023-06-22T14:34:34;59.33;;;22.17;;
2570;SDS011;1295;51.130;6.732;2023-06-22T14:36:59;61.40;;;26.10;;
2570;SDS011;1295;51.130;6.732;2023-06-22T14:39:24;69.03;;;30.90;;
2570;SDS011;1295;51.130;6.732;2023-06-22T14:41:50;63.00;;;22.93;;
2570;SDS011;1295;51.130;6.732;2023-06-22T14:44:16;63.23;;;24.20;;